WXM80 ListenWXM80 Stop

You find our weather info also at:

UK Metoffice

WeatherCloud

Weather Underground

Northeastern Weather Network

AWEKAS

Citizen Weather Observer Program (CWOP)

HAMweather, WeatherForYou, PWS Weather


Weather Underground History page Text

Daily Summary for September 2, 2017 Units:  Both    English   Metric
« Previous Day
Next Day »
Daily Weekly Monthly Yearly Custom
  High: Low: Average:
Temperature: 69.4 °F /  20.8 °C 57.6 °F /  14.2 °C 62.1 °F /  16.7 °C
Dew Point: 56.7 °F /  13.7 °C 45.8 °F /  7.7 °C 51.8 °F /  11 °C
Humidity: 93 % 53 % 70 %
Wind Speed: 7.7 mph /  12.4 km/h - 1.6 mph /  2.6 km/h
Wind Gust: 13.0 mph /  20.9 km/h - -
Wind:- - East
Pressure: 30.21 in /  1022.9 hPa 30.08 in /  1018.5 hPa -
Precipitation: 0.18 in /  4.57 mm    
Historical Graphs
 
 
Tabular Data for September 2, 2017
Time Temperature Dew Point Pressure Wind Wind Speed Wind Gust Humidity Rainfall Rate (Hourly)
00:02 62.7 °F /  17.1 °C 45.8 °F /  7.7 °C 30.14 in /  1020.5 hPa NE 4.3 mph /  6.9 km/h 7.0 mph /  11.3 km/h 54 % 0.00 in /  0 mm
00:07 62.6 °F /  17 °C 46.2 °F /  7.9 °C 30.14 in /  1020.5 hPa NE 6.3 mph /  10.1 km/h 9.0 mph /  14.5 km/h 55 % 0.00 in /  0 mm
00:12 62.5 °F /  16.9 °C 46.1 °F /  7.8 °C 30.14 in /  1020.5 hPa NNE 3.5 mph /  5.6 km/h 6.9 mph /  11.1 km/h 55 % 0.00 in /  0 mm
00:17 62.3 °F /  16.8 °C 46.4 °F /  8 °C 30.15 in /  1020.9 hPa NNE 6.1 mph /  9.8 km/h 11.5 mph /  18.5 km/h 56 % 0.00 in /  0 mm
00:22 62.1 °F /  16.7 °C 46.2 °F /  7.9 °C 30.14 in /  1020.5 hPa NNE 3.3 mph /  5.3 km/h 8.1 mph /  13 km/h 56 % 0.00 in /  0 mm
00:27 62.0 °F /  16.7 °C 47.0 °F /  8.3 °C 30.14 in /  1020.5 hPa NNE 3.5 mph /  5.6 km/h 5.0 mph /  8 km/h 58 % 0.00 in /  0 mm
00:32 61.8 °F /  16.6 °C 46.9 °F /  8.3 °C 30.15 in /  1020.9 hPa North 4.4 mph /  7.1 km/h 9.2 mph /  14.8 km/h 58 % 0.00 in /  0 mm
00:37 61.6 °F /  16.4 °C 46.7 °F /  8.2 °C 30.14 in /  1020.5 hPa NNE 5.8 mph /  9.3 km/h 11.5 mph /  18.5 km/h 58 % 0.00 in /  0 mm
00:42 61.4 °F /  16.3 °C 46.5 °F /  8.1 °C 30.14 in /  1020.5 hPa NNE 4.4 mph /  7.1 km/h 9.2 mph /  14.8 km/h 58 % 0.00 in /  0 mm
00:52 61.2 °F /  16.2 °C 46.8 °F /  8.2 °C 30.15 in /  1020.9 hPa NE 5.1 mph /  8.2 km/h 8.1 mph /  13 km/h 59 % 0.00 in /  0 mm
00:58 61.1 °F /  16.2 °C 47.1 °F /  8.4 °C 30.15 in /  1020.9 hPa North 7.7 mph /  12.4 km/h 11.5 mph /  18.5 km/h 60 % 0.00 in /  0 mm
01:03 61.0 °F /  16.1 °C 47.0 °F /  8.3 °C 30.15 in /  1020.9 hPa NNE 3.8 mph /  6.1 km/h 8.1 mph /  13 km/h 60 % 0.00 in /  0 mm
01:08 60.9 °F /  16.1 °C 47.8 °F /  8.8 °C 30.15 in /  1020.9 hPa NE 3.2 mph /  5.1 km/h 4.6 mph /  7.4 km/h 62 % 0.00 in /  0 mm
01:13 60.8 °F /  16 °C 47.7 °F /  8.7 °C 30.15 in /  1020.9 hPa NNE 3.5 mph /  5.6 km/h 9.2 mph /  14.8 km/h 62 % 0.00 in /  0 mm
01:18 60.7 °F /  15.9 °C 47.6 °F /  8.7 °C 30.14 in /  1020.5 hPa NNE 5.3 mph /  8.5 km/h 10.4 mph /  16.7 km/h 62 % 0.00 in /  0 mm
01:23 60.5 °F /  15.8 °C 47.4 °F /  8.6 °C 30.15 in /  1020.9 hPa NNE 5.5 mph /  8.9 km/h 11.5 mph /  18.5 km/h 62 % 0.00 in /  0 mm
01:28 60.4 °F /  15.8 °C 47.3 °F /  8.5 °C 30.15 in /  1020.9 hPa North 6.3 mph /  10.1 km/h 11.5 mph /  18.5 km/h 62 % 0.00 in /  0 mm
01:33 60.3 °F /  15.7 °C 47.6 °F /  8.7 °C 30.15 in /  1020.9 hPa NNE 3.6 mph /  5.8 km/h 11.5 mph /  18.5 km/h 63 % 0.00 in /  0 mm
01:38 60.2 °F /  15.7 °C 48.0 °F /  8.9 °C 30.15 in /  1020.9 hPa NE 7.0 mph /  11.3 km/h 11.5 mph /  18.5 km/h 64 % 0.00 in /  0 mm
01:43 60.1 °F /  15.6 °C 47.9 °F /  8.8 °C 30.15 in /  1020.9 hPa North 6.3 mph /  10.1 km/h 13.0 mph /  20.9 km/h 64 % 0.00 in /  0 mm
01:48 60.1 °F /  15.6 °C 47.9 °F /  8.8 °C 30.15 in /  1020.9 hPa North 3.0 mph /  4.8 km/h 8.1 mph /  13 km/h 64 % 0.00 in /  0 mm
01:53 60.0 °F /  15.6 °C 47.8 °F /  8.8 °C 30.15 in /  1020.9 hPa North 3.4 mph /  5.5 km/h 9.2 mph /  14.8 km/h 64 % 0.00 in /  0 mm
01:58 59.9 °F /  15.5 °C 47.7 °F /  8.7 °C 30.15 in /  1020.9 hPa NNE 3.5 mph /  5.6 km/h 5.8 mph /  9.3 km/h 64 % 0.00 in /  0 mm
02:03 59.8 °F /  15.4 °C 47.6 °F /  8.7 °C 30.15 in /  1020.9 hPa North 3.4 mph /  5.5 km/h 9.0 mph /  14.5 km/h 64 % 0.00 in /  0 mm
02:08 59.6 °F /  15.3 °C 47.4 °F /  8.6 °C 30.14 in /  1020.5 hPa NE 4.1 mph /  6.6 km/h 8.0 mph /  12.9 km/h 64 % 0.00 in /  0 mm
02:13 59.6 °F /  15.3 °C 47.8 °F /  8.8 °C 30.14 in /  1020.5 hPa NNW 4.8 mph /  7.7 km/h 8.1 mph /  13 km/h 65 % 0.00 in /  0 mm
02:18 59.5 °F /  15.3 °C 47.7 °F /  8.7 °C 30.15 in /  1020.9 hPa North 6.6 mph /  10.6 km/h 10.0 mph /  16.1 km/h 65 % 0.00 in /  0 mm
02:23 59.4 °F /  15.2 °C 47.6 °F /  8.7 °C 30.15 in /  1020.9 hPa North 5.6 mph /  9 km/h 10.4 mph /  16.7 km/h 65 % 0.00 in /  0 mm
02:28 59.4 °F /  15.2 °C 48.0 °F /  8.9 °C 30.14 in /  1020.5 hPa NNE 3.4 mph /  5.5 km/h 9.0 mph /  14.5 km/h 66 % 0.00 in /  0 mm
02:33 59.3 °F /  15.2 °C 47.9 °F /  8.8 °C 30.14 in /  1020.5 hPa North 5.8 mph /  9.3 km/h 8.1 mph /  13 km/h 66 % 0.00 in /  0 mm
02:38 59.3 °F /  15.2 °C 47.9 °F /  8.8 °C 30.14 in /  1020.5 hPa NNE 7.2 mph /  11.6 km/h 12.7 mph /  20.4 km/h 66 % 0.00 in /  0 mm
02:43 59.2 °F /  15.1 °C 48.2 °F /  9 °C 30.14 in /  1020.5 hPa North 4.9 mph /  7.9 km/h 7.0 mph /  11.3 km/h 67 % 0.00 in /  0 mm
02:48 59.2 °F /  15.1 °C 48.2 °F /  9 °C 30.14 in /  1020.5 hPa NNE 6.9 mph /  11.1 km/h 11.5 mph /  18.5 km/h 67 % 0.00 in /  0 mm
02:53 59.1 °F /  15.1 °C 48.1 °F /  8.9 °C 30.15 in /  1020.9 hPa North 7.1 mph /  11.4 km/h 9.2 mph /  14.8 km/h 67 % 0.00 in /  0 mm
02:58 59.1 °F /  15.1 °C 48.5 °F /  9.2 °C 30.15 in /  1020.9 hPa NNE 6.0 mph /  9.7 km/h 8.1 mph /  13 km/h 68 % 0.00 in /  0 mm
03:03 59.0 °F /  15 °C 48.1 °F /  8.9 °C 30.15 in /  1020.9 hPa NNE 4.0 mph /  6.4 km/h 8.0 mph /  12.9 km/h 67 % 0.00 in /  0 mm
03:08 59.0 °F /  15 °C 48.4 °F /  9.1 °C 30.15 in /  1020.9 hPa North 5.8 mph /  9.3 km/h 8.1 mph /  13 km/h 68 % 0.00 in /  0 mm
03:14 59.0 °F /  15 °C 48.8 °F /  9.3 °C 30.15 in /  1020.9 hPa NNE 4.2 mph /  6.8 km/h 9.2 mph /  14.8 km/h 69 % 0.00 in /  0 mm
03:19 58.9 °F /  14.9 °C 49.1 °F /  9.5 °C 30.15 in /  1020.9 hPa NNE 4.1 mph /  6.6 km/h 8.1 mph /  13 km/h 70 % 0.00 in /  0 mm
03:24 58.9 °F /  14.9 °C 49.5 °F /  9.7 °C 30.14 in /  1020.5 hPa NNE 1.4 mph /  2.3 km/h 3.5 mph /  5.6 km/h 71 % 0.00 in /  0 mm
03:29 58.9 °F /  14.9 °C 49.5 °F /  9.7 °C 30.14 in /  1020.5 hPa NNE 3.2 mph /  5.1 km/h 5.8 mph /  9.3 km/h 71 % 0.00 in /  0 mm
03:34 58.8 °F /  14.9 °C 49.0 °F /  9.4 °C 30.14 in /  1020.5 hPa North 1.7 mph /  2.7 km/h 4.6 mph /  7.4 km/h 70 % 0.00 in /  0 mm
03:39 58.7 °F /  14.8 °C 48.2 °F /  9 °C 30.14 in /  1020.5 hPa NNE 2.9 mph /  4.7 km/h 7.0 mph /  11.3 km/h 68 % 0.00 in /  0 mm
03:44 58.6 °F /  14.8 °C 47.7 °F /  8.7 °C 30.14 in /  1020.5 hPa NNE 4.9 mph /  7.9 km/h 10.0 mph /  16.1 km/h 67 % 0.00 in /  0 mm
03:49 58.6 °F /  14.8 °C 48.1 °F /  8.9 °C 30.14 in /  1020.5 hPa East 4.8 mph /  7.7 km/h 9.2 mph /  14.8 km/h 68 % 0.00 in /  0 mm
03:54 58.6 °F /  14.8 °C 48.1 °F /  8.9 °C 30.14 in /  1020.5 hPa NNE 4.8 mph /  7.7 km/h 8.1 mph /  13 km/h 68 % 0.00 in /  0 mm
03:59 58.6 °F /  14.8 °C 48.5 °F /  9.2 °C 30.14 in /  1020.5 hPa NE 5.2 mph /  8.4 km/h 6.9 mph /  11.1 km/h 69 % 0.00 in /  0 mm
04:04 58.6 °F /  14.8 °C 48.5 °F /  9.2 °C 30.14 in /  1020.5 hPa NE 6.0 mph /  9.7 km/h 9.2 mph /  14.8 km/h 69 % 0.00 in /  0 mm
04:09 58.6 °F /  14.8 °C 48.5 °F /  9.2 °C 30.14 in /  1020.5 hPa North 7.0 mph /  11.3 km/h 12.7 mph /  20.4 km/h 69 % 0.00 in /  0 mm
04:14 58.6 °F /  14.8 °C 48.5 °F /  9.2 °C 30.14 in /  1020.5 hPa ENE 2.2 mph /  3.5 km/h 6.9 mph /  11.1 km/h 69 % 0.00 in /  0 mm
04:19 58.6 °F /  14.8 °C 48.8 °F /  9.3 °C 30.14 in /  1020.5 hPa ENE 4.9 mph /  7.9 km/h 11.5 mph /  18.5 km/h 70 % 0.00 in /  0 mm
04:24 58.5 °F /  14.7 °C 49.5 °F /  9.7 °C 30.14 in /  1020.5 hPa NNW 3.8 mph /  6.1 km/h 9.2 mph /  14.8 km/h 72 % 0.00 in /  0 mm
04:29 58.4 °F /  14.7 °C 49.8 °F /  9.9 °C 30.14 in /  1020.5 hPa NNE 2.7 mph /  4.3 km/h 9.2 mph /  14.8 km/h 73 % 0.00 in /  0 mm
04:35 58.2 °F /  14.6 °C 49.6 °F /  9.8 °C 30.14 in /  1020.5 hPa NNE 4.1 mph /  6.6 km/h 9.2 mph /  14.8 km/h 73 % 0.00 in /  0 mm
04:40 58.1 °F /  14.5 °C 49.5 °F /  9.7 °C 30.15 in /  1020.9 hPa ENE 3.5 mph /  5.6 km/h 7.0 mph /  11.3 km/h 73 % 0.00 in /  0 mm
04:45 57.9 °F /  14.4 °C 49.3 °F /  9.6 °C 30.15 in /  1020.9 hPa NNE 3.3 mph /  5.3 km/h 6.9 mph /  11.1 km/h 73 % 0.00 in /  0 mm
04:50 57.8 °F /  14.3 °C 48.8 °F /  9.3 °C 30.15 in /  1020.9 hPa ENE 2.5 mph /  4 km/h 4.6 mph /  7.4 km/h 72 % 0.00 in /  0 mm
04:55 57.7 °F /  14.3 °C 48.7 °F /  9.3 °C 30.15 in /  1020.9 hPa NNE 4.2 mph /  6.8 km/h 11.5 mph /  18.5 km/h 72 % 0.00 in /  0 mm
05:00 57.7 °F /  14.3 °C 48.7 °F /  9.3 °C 30.16 in /  1021.2 hPa NE 2.1 mph /  3.4 km/h 5.8 mph /  9.3 km/h 72 % 0.00 in /  0 mm
05:05 57.7 °F /  14.3 °C 48.7 °F /  9.3 °C 30.16 in /  1021.2 hPa NE 2.4 mph /  3.9 km/h 6.9 mph /  11.1 km/h 72 % 0.00 in /  0 mm
05:10 57.7 °F /  14.3 °C 48.7 °F /  9.3 °C 30.16 in /  1021.2 hPa NNE 0.9 mph /  1.4 km/h 3.5 mph /  5.6 km/h 72 % 0.00 in /  0 mm
05:15 57.7 °F /  14.3 °C 48.7 °F /  9.3 °C 30.16 in /  1021.2 hPa NE 3.3 mph /  5.3 km/h 8.1 mph /  13 km/h 72 % 0.00 in /  0 mm
05:20 57.6 °F /  14.2 °C 48.6 °F /  9.2 °C 30.16 in /  1021.2 hPa NE 2.1 mph /  3.4 km/h 5.0 mph /  8 km/h 72 % 0.00 in /  0 mm
05:25 57.6 °F /  14.2 °C 48.6 °F /  9.2 °C 30.16 in /  1021.2 hPa ENE 3.0 mph /  4.8 km/h 8.1 mph /  13 km/h 72 % 0.00 in /  0 mm
05:30 57.6 °F /  14.2 °C 49.0 °F /  9.4 °C 30.16 in /  1021.2 hPa ENE 0.8 mph /  1.3 km/h 3.5 mph /  5.6 km/h 73 % 0.00 in /  0 mm
05:35 57.6 °F /  14.2 °C 49.0 °F /  9.4 °C 30.16 in /  1021.2 hPa NE 1.6 mph /  2.6 km/h 3.0 mph /  4.8 km/h 73 % 0.00 in /  0 mm
05:40 57.7 °F /  14.3 °C 49.1 °F /  9.5 °C 30.16 in /  1021.2 hPa ENE 1.8 mph /  2.9 km/h 3.5 mph /  5.6 km/h 73 % 0.00 in /  0 mm
05:42 57.7 °F /  14.3 °C 49.1 °F /  9.5 °C 30.16 in /  1021.2 hPa ENE 0.3 mph /  0.5 km/h 2.3 mph /  3.7 km/h 73 % 0.00 in /  0 mm
05:47 57.7 °F /  14.3 °C 49.1 °F /  9.5 °C 30.15 in /  1020.9 hPa ENE 3.3 mph /  5.3 km/h 9.2 mph /  14.8 km/h 73 % 0.00 in /  0 mm
05:57 57.8 °F /  14.3 °C 49.6 °F /  9.8 °C 30.16 in /  1021.2 hPa NE 3.2 mph /  5.1 km/h 5.0 mph /  8 km/h 74 % 0.00 in /  0 mm
06:02 58.0 °F /  14.4 °C 49.8 °F /  9.9 °C 30.15 in /  1020.9 hPa NE 3.6 mph /  5.8 km/h 10.4 mph /  16.7 km/h 74 % 0.00 in /  0 mm
06:07 58.1 °F /  14.5 °C 50.2 °F /  10.1 °C 30.15 in /  1020.9 hPa ENE 3.7 mph /  6 km/h 4.0 mph /  6.4 km/h 75 % 0.00 in /  0 mm
06:12 58.1 °F /  14.5 °C 50.2 °F /  10.1 °C 30.15 in /  1020.9 hPa ENE 4.3 mph /  6.9 km/h 8.1 mph /  13 km/h 75 % 0.00 in /  0 mm
06:17 58.3 °F /  14.6 °C 50.4 °F /  10.2 °C 30.15 in /  1020.9 hPa ENE 3.3 mph /  5.3 km/h 9.2 mph /  14.8 km/h 75 % 0.00 in /  0 mm
06:22 58.3 °F /  14.6 °C 50.4 °F /  10.2 °C 30.16 in /  1021.2 hPa NE 3.4 mph /  5.5 km/h 9.2 mph /  14.8 km/h 75 % 0.00 in /  0 mm
06:28 58.3 °F /  14.6 °C 50.4 °F /  10.2 °C 30.16 in /  1021.2 hPa NE 3.7 mph /  6 km/h 10.4 mph /  16.7 km/h 75 % 0.00 in /  0 mm
06:33 58.4 °F /  14.7 °C 50.5 °F /  10.3 °C 30.17 in /  1021.6 hPa ENE 2.3 mph /  3.7 km/h 3.5 mph /  5.6 km/h 75 % 0.00 in /  0 mm
06:38 58.4 °F /  14.7 °C 50.5 °F /  10.3 °C 30.16 in /  1021.2 hPa ENE 3.1 mph /  5 km/h 4.6 mph /  7.4 km/h 75 % 0.00 in /  0 mm
06:43 58.4 °F /  14.7 °C 50.5 °F /  10.3 °C 30.17 in /  1021.6 hPa ENE 2.6 mph /  4.2 km/h 4.6 mph /  7.4 km/h 75 % 0.00 in /  0 mm
06:48 58.4 °F /  14.7 °C 50.5 °F /  10.3 °C 30.17 in /  1021.6 hPa East 4.4 mph /  7.1 km/h 8.1 mph /  13 km/h 75 % 0.00 in /  0 mm
06:53 58.4 °F /  14.7 °C 50.9 °F /  10.5 °C 30.17 in /  1021.6 hPa NE 2.8 mph /  4.5 km/h 8.1 mph /  13 km/h 76 % 0.00 in /  0 mm
06:58 58.5 °F /  14.7 °C 50.6 °F /  10.3 °C 30.18 in /  1021.9 hPa NE 2.3 mph /  3.7 km/h 4.6 mph /  7.4 km/h 75 % 0.00 in /  0 mm
07:03 58.6 °F /  14.8 °C 50.7 °F /  10.4 °C 30.18 in /  1021.9 hPa ENE 2.3 mph /  3.7 km/h 4.6 mph /  7.4 km/h 75 % 0.00 in /  0 mm
07:08 58.6 °F /  14.8 °C 50.7 °F /  10.4 °C 30.18 in /  1021.9 hPa ENE 2.2 mph /  3.5 km/h 6.9 mph /  11.1 km/h 75 % 0.00 in /  0 mm
07:13 58.7 °F /  14.8 °C 51.2 °F /  10.7 °C 30.18 in /  1021.9 hPa ENE 2.0 mph /  3.2 km/h 4.6 mph /  7.4 km/h 76 % 0.00 in /  0 mm
07:18 58.8 °F /  14.9 °C 51.2 °F /  10.7 °C 30.18 in /  1021.9 hPa NE 1.1 mph /  1.8 km/h 3.5 mph /  5.6 km/h 76 % 0.00 in /  0 mm
07:23 58.8 °F /  14.9 °C 51.2 °F /  10.7 °C 30.18 in /  1021.9 hPa ENE 0.4 mph /  0.6 km/h 2.3 mph /  3.7 km/h 76 % 0.00 in /  0 mm
07:28 59.0 °F /  15 °C 51.1 °F /  10.6 °C 30.18 in /  1021.9 hPa ENE 2.6 mph /  4.2 km/h 3.5 mph /  5.6 km/h 75 % 0.00 in /  0 mm
07:33 59.1 °F /  15.1 °C 51.2 °F /  10.7 °C 30.18 in /  1021.9 hPa ENE 1.3 mph /  2.1 km/h 3.0 mph /  4.8 km/h 75 % 0.00 in /  0 mm
07:38 59.3 °F /  15.2 °C 51.0 °F /  10.6 °C 30.18 in /  1021.9 hPa ENE 2.1 mph /  3.4 km/h 4.6 mph /  7.4 km/h 74 % 0.00 in /  0 mm
07:43 59.5 °F /  15.3 °C 51.6 °F /  10.9 °C 30.18 in /  1021.9 hPa ENE 1.8 mph /  2.9 km/h 3.5 mph /  5.6 km/h 75 % 0.00 in /  0 mm
07:48 59.6 °F /  15.3 °C 51.7 °F /  10.9 °C 30.18 in /  1021.9 hPa ENE 2.2 mph /  3.5 km/h 7.0 mph /  11.3 km/h 75 % 0.00 in /  0 mm
07:53 59.6 °F /  15.3 °C 52.0 °F /  11.1 °C 30.18 in /  1021.9 hPa ENE 3.8 mph /  6.1 km/h 7.0 mph /  11.3 km/h 76 % 0.00 in /  0 mm
07:58 59.7 °F /  15.4 °C 52.1 °F /  11.2 °C 30.19 in /  1022.2 hPa ENE 0.6 mph /  1 km/h 3.0 mph /  4.8 km/h 76 % 0.00 in /  0 mm
08:03 59.9 °F /  15.5 °C 52.0 °F /  11.1 °C 30.19 in /  1022.2 hPa ENE 3.0 mph /  4.8 km/h 8.1 mph /  13 km/h 75 % 0.00 in /  0 mm
08:08 60.1 °F /  15.6 °C 52.1 °F /  11.2 °C 30.20 in /  1022.6 hPa NE 2.5 mph /  4 km/h 3.5 mph /  5.6 km/h 75 % 0.00 in /  0 mm
08:13 60.3 °F /  15.7 °C 52.3 °F /  11.3 °C 30.20 in /  1022.6 hPa ENE 1.3 mph /  2.1 km/h 9.2 mph /  14.8 km/h 75 % 0.00 in /  0 mm
08:19 60.4 °F /  15.8 °C 52.4 °F /  11.3 °C 30.20 in /  1022.6 hPa ENE 1.7 mph /  2.7 km/h 3.5 mph /  5.6 km/h 75 % 0.00 in /  0 mm
08:24 60.6 °F /  15.9 °C 52.6 °F /  11.4 °C 30.20 in /  1022.6 hPa ENE 3.0 mph /  4.8 km/h 3.5 mph /  5.6 km/h 75 % 0.00 in /  0 mm
08:29 60.7 °F /  15.9 °C 52.4 °F /  11.3 °C 30.21 in /  1022.9 hPa ENE 1.4 mph /  2.3 km/h 3.5 mph /  5.6 km/h 74 % 0.00 in /  0 mm
08:34 60.9 °F /  16.1 °C 52.9 °F /  11.6 °C 30.20 in /  1022.6 hPa ENE 3.0 mph /  4.8 km/h 5.0 mph /  8 km/h 75 % 0.00 in /  0 mm
08:35 60.9 °F /  16.1 °C 52.6 °F /  11.4 °C 30.20 in /  1022.6 hPa ENE 4.0 mph /  6.4 km/h 8.1 mph /  13 km/h 74 % 0.00 in /  0 mm
08:40 61.1 °F /  16.2 °C 52.7 °F /  11.5 °C 30.20 in /  1022.6 hPa NE 3.8 mph /  6.1 km/h 8.0 mph /  12.9 km/h 74 % 0.00 in /  0 mm
08:45 61.3 °F /  16.3 °C 52.9 °F /  11.6 °C 30.19 in /  1022.2 hPa NE 2.2 mph /  3.5 km/h 9.2 mph /  14.8 km/h 74 % 0.00 in /  0 mm
08:50 61.4 °F /  16.3 °C 53.0 °F /  11.7 °C 30.19 in /  1022.2 hPa NE 3.5 mph /  5.6 km/h 6.9 mph /  11.1 km/h 74 % 0.00 in /  0 mm
08:55 61.5 °F /  16.4 °C 53.1 °F /  11.7 °C 30.19 in /  1022.2 hPa ENE 1.7 mph /  2.7 km/h 4.6 mph /  7.4 km/h 74 % 0.00 in /  0 mm
09:00 61.6 °F /  16.4 °C 52.9 °F /  11.6 °C 30.19 in /  1022.2 hPa ENE 3.3 mph /  5.3 km/h 6.9 mph /  11.1 km/h 73 % 0.00 in /  0 mm
09:05 61.7 °F /  16.5 °C 53.0 °F /  11.7 °C 30.19 in /  1022.2 hPa ENE 3.6 mph /  5.8 km/h 8.1 mph /  13 km/h 73 % 0.00 in /  0 mm
09:10 61.7 °F /  16.5 °C 52.6 °F /  11.4 °C 30.19 in /  1022.2 hPa ENE 1.4 mph /  2.3 km/h 8.1 mph /  13 km/h 72 % 0.00 in /  0 mm
09:15 61.9 °F /  16.6 °C 52.8 °F /  11.6 °C 30.20 in /  1022.6 hPa NE 1.5 mph /  2.4 km/h 5.8 mph /  9.3 km/h 72 % 0.00 in /  0 mm
09:21 62.0 °F /  16.7 °C 52.5 °F /  11.4 °C 30.20 in /  1022.6 hPa NE 1.0 mph /  1.6 km/h 6.0 mph /  9.7 km/h 71 % 0.00 in /  0 mm
09:26 62.2 °F /  16.8 °C 52.7 °F /  11.5 °C 30.21 in /  1022.9 hPa ENE 1.0 mph /  1.6 km/h 6.0 mph /  9.7 km/h 71 % 0.00 in /  0 mm
09:31 62.3 °F /  16.8 °C 52.4 °F /  11.3 °C 30.21 in /  1022.9 hPa Calm   3.0 mph /  4.8 km/h 70 % 0.00 in /  0 mm
09:36 62.5 °F /  16.9 °C 52.6 °F /  11.4 °C 30.20 in /  1022.6 hPa NE 1.0 mph /  1.6 km/h 4.0 mph /  6.4 km/h 70 % 0.00 in /  0 mm
09:41 62.7 °F /  17.1 °C 52.8 °F /  11.6 °C 30.20 in /  1022.6 hPa ENE 2.0 mph /  3.2 km/h 4.0 mph /  6.4 km/h 70 % 0.00 in /  0 mm
09:42 62.7 °F /  17.1 °C 52.8 °F /  11.6 °C 30.20 in /  1022.6 hPa ENE 0.7 mph /  1.1 km/h 3.5 mph /  5.6 km/h 70 % 0.00 in /  0 mm
09:47 62.9 °F /  17.2 °C 53.0 °F /  11.7 °C 30.21 in /  1022.9 hPa NE 0.5 mph /  0.8 km/h 2.3 mph /  3.7 km/h 70 % 0.00 in /  0 mm
09:52 63.1 °F /  17.3 °C 53.2 °F /  11.8 °C 30.21 in /  1022.9 hPa NE 1.3 mph /  2.1 km/h 3.5 mph /  5.6 km/h 70 % 0.00 in /  0 mm
09:57 63.3 °F /  17.4 °C 52.6 °F /  11.4 °C 30.21 in /  1022.9 hPa NE 1.3 mph /  2.1 km/h 3.5 mph /  5.6 km/h 68 % 0.00 in /  0 mm
10:02 63.5 °F /  17.5 °C 53.1 °F /  11.7 °C 30.20 in /  1022.6 hPa ENE 0.3 mph /  0.5 km/h 2.3 mph /  3.7 km/h 69 % 0.00 in /  0 mm
10:07 63.6 °F /  17.6 °C 52.4 °F /  11.3 °C 30.20 in /  1022.6 hPa ENE 0.2 mph /  0.3 km/h 2.3 mph /  3.7 km/h 67 % 0.00 in /  0 mm
10:12 63.7 °F /  17.6 °C 52.1 °F /  11.2 °C 30.21 in /  1022.9 hPa ENE 2.5 mph /  4 km/h 5.0 mph /  8 km/h 66 % 0.00 in /  0 mm
10:17 63.9 °F /  17.7 °C 52.3 °F /  11.3 °C 30.21 in /  1022.9 hPa Calm   1.2 mph /  1.9 km/h 66 % 0.00 in /  0 mm
10:22 64.0 °F /  17.8 °C 52.4 °F /  11.3 °C 30.21 in /  1022.9 hPa ENE 0.1 mph /  0.2 km/h 1.2 mph /  1.9 km/h 66 % 0.00 in /  0 mm
10:27 64.1 °F /  17.8 °C 52.1 °F /  11.2 °C 30.21 in /  1022.9 hPa Calm   1.2 mph /  1.9 km/h 65 % 0.00 in /  0 mm
10:32 64.3 °F /  17.9 °C 52.3 °F /  11.3 °C 30.21 in /  1022.9 hPa ENE 0.2 mph /  0.3 km/h 1.2 mph /  1.9 km/h 65 % 0.00 in /  0 mm
10:37 64.5 °F /  18.1 °C 52.5 °F /  11.4 °C 30.21 in /  1022.9 hPa ENE 0.1 mph /  0.2 km/h 1.2 mph /  1.9 km/h 65 % 0.00 in /  0 mm
10:42 64.6 °F /  18.1 °C 51.7 °F /  10.9 °C 30.21 in /  1022.9 hPa ENE 0.2 mph /  0.3 km/h 1.2 mph /  1.9 km/h 63 % 0.00 in /  0 mm
10:47 64.8 °F /  18.2 °C 52.8 °F /  11.6 °C 30.21 in /  1022.9 hPa Calm     65 % 0.00 in /  0 mm
10:52 64.9 °F /  18.3 °C 51.6 °F /  10.9 °C 30.21 in /  1022.9 hPa NE 0.6 mph /  1 km/h 3.5 mph /  5.6 km/h 62 % 0.00 in /  0 mm
10:57 65.1 °F /  18.4 °C 51.8 °F /  11 °C 30.20 in /  1022.6 hPa NE 0.2 mph /  0.3 km/h 2.3 mph /  3.7 km/h 62 % 0.00 in /  0 mm
11:02 65.2 °F /  18.4 °C 52.3 °F /  11.3 °C 30.20 in /  1022.6 hPa NE 0.4 mph /  0.6 km/h 1.2 mph /  1.9 km/h 63 % 0.00 in /  0 mm
11:07 65.3 °F /  18.5 °C 51.9 °F /  11.1 °C 30.21 in /  1022.9 hPa SE 0.6 mph /  1 km/h 3.5 mph /  5.6 km/h 62 % 0.00 in /  0 mm
11:12 65.4 °F /  18.6 °C 51.6 °F /  10.9 °C 30.20 in /  1022.6 hPa Calm     61 % 0.00 in /  0 mm
11:17 65.5 °F /  18.6 °C 52.6 °F /  11.4 °C 30.20 in /  1022.6 hPa SE 0.6 mph /  1 km/h 3.5 mph /  5.6 km/h 63 % 0.00 in /  0 mm
11:22 65.6 °F /  18.7 °C 52.2 °F /  11.2 °C 30.20 in /  1022.6 hPa SE 0.1 mph /  0.2 km/h 2.3 mph /  3.7 km/h 62 % 0.00 in /  0 mm
11:27 65.7 °F /  18.7 °C 51.4 °F /  10.8 °C 30.20 in /  1022.6 hPa Calm   1.2 mph /  1.9 km/h 60 % 0.00 in /  0 mm
11:32 65.7 °F /  18.7 °C 51.9 °F /  11.1 °C 30.20 in /  1022.6 hPa SE 0.1 mph /  0.2 km/h 1.2 mph /  1.9 km/h 61 % 0.00 in /  0 mm
11:37 65.8 °F /  18.8 °C 51.5 °F /  10.8 °C 30.20 in /  1022.6 hPa SE 0.3 mph /  0.5 km/h 1.2 mph /  1.9 km/h 60 % 0.00 in /  0 mm
11:42 65.9 °F /  18.8 °C 51.2 °F /  10.7 °C 30.20 in /  1022.6 hPa Calm     59 % 0.00 in /  0 mm
11:47 66.0 °F /  18.9 °C 51.7 °F /  10.9 °C 30.19 in /  1022.2 hPa Calm     60 % 0.00 in /  0 mm
11:52 66.0 °F /  18.9 °C 51.3 °F /  10.7 °C 30.20 in /  1022.6 hPa Calm   1.2 mph /  1.9 km/h 59 % 0.00 in /  0 mm
11:57 66.1 °F /  18.9 °C 51.8 °F /  11 °C 30.19 in /  1022.2 hPa Calm   1.2 mph /  1.9 km/h 60 % 0.00 in /  0 mm
12:02 66.3 °F /  19.1 °C 52.0 °F /  11.1 °C 30.19 in /  1022.2 hPa Calm     60 % 0.00 in /  0 mm
12:07 66.5 °F /  19.2 °C 51.3 °F /  10.7 °C 30.19 in /  1022.2 hPa East 0.1 mph /  0.2 km/h 2.0 mph /  3.2 km/h 58 % 0.00 in /  0 mm
12:12 66.7 °F /  19.3 °C 51.0 °F /  10.6 °C 30.19 in /  1022.2 hPa Calm   1.0 mph /  1.6 km/h 57 % 0.00 in /  0 mm
12:17 67.0 °F /  19.4 °C 52.2 °F /  11.2 °C 30.19 in /  1022.2 hPa Calm     59 % 0.00 in /  0 mm
12:22 67.0 °F /  19.4 °C 50.3 °F /  10.2 °C 30.19 in /  1022.2 hPa East 0.1 mph /  0.2 km/h 1.2 mph /  1.9 km/h 55 % 0.00 in /  0 mm
12:27 67.1 °F /  19.5 °C 52.3 °F /  11.3 °C 30.19 in /  1022.2 hPa East 0.2 mph /  0.3 km/h   59 % 0.00 in /  0 mm
12:32 67.5 °F /  19.7 °C 52.7 °F /  11.5 °C 30.19 in /  1022.2 hPa Calm   1.2 mph /  1.9 km/h 59 % 0.00 in /  0 mm
12:37 68.2 °F /  20.1 °C 52.4 °F /  11.3 °C 30.18 in /  1021.9 hPa ESE 0.1 mph /  0.2 km/h 1.2 mph /  1.9 km/h 57 % 0.00 in /  0 mm
12:42 68.9 °F /  20.5 °C 53.0 °F /  11.7 °C 30.18 in /  1021.9 hPa NNE 0.7 mph /  1.1 km/h 2.3 mph /  3.7 km/h 57 % 0.00 in /  0 mm
12:48 69.2 °F /  20.7 °C 52.3 °F /  11.3 °C 30.18 in /  1021.9 hPa NE 3.5 mph /  5.6 km/h 4.6 mph /  7.4 km/h 55 % 0.00 in /  0 mm
12:53 69.3 °F /  20.7 °C 52.4 °F /  11.3 °C 30.18 in /  1021.9 hPa ESE 0.9 mph /  1.4 km/h 2.3 mph /  3.7 km/h 55 % 0.00 in /  0 mm
12:58 69.4 °F /  20.8 °C 52.0 °F /  11.1 °C 30.18 in /  1021.9 hPa Calm   1.2 mph /  1.9 km/h 54 % 0.00 in /  0 mm
13:03 69.4 °F /  20.8 °C 51.5 °F /  10.8 °C 30.18 in /  1021.9 hPa NE 0.8 mph /  1.3 km/h 2.3 mph /  3.7 km/h 53 % 0.00 in /  0 mm
13:08 69.0 °F /  20.6 °C 51.2 °F /  10.7 °C 30.17 in /  1021.6 hPa NE 2.4 mph /  3.9 km/h 4.0 mph /  6.4 km/h 53 % 0.00 in /  0 mm
13:13 68.5 °F /  20.3 °C 51.7 °F /  10.9 °C 30.18 in /  1021.9 hPa NE 0.6 mph /  1 km/h 3.5 mph /  5.6 km/h 55 % 0.00 in /  0 mm
13:18 68.3 °F /  20.2 °C 52.0 °F /  11.1 °C 30.17 in /  1021.6 hPa Calm   1.2 mph /  1.9 km/h 56 % 0.00 in /  0 mm
13:23 68.2 °F /  20.1 °C 51.9 °F /  11.1 °C 30.17 in /  1021.6 hPa Calm     56 % 0.00 in /  0 mm
13:28 68.0 °F /  20 °C 51.7 °F /  10.9 °C 30.17 in /  1021.6 hPa NE 0.4 mph /  0.6 km/h 1.2 mph /  1.9 km/h 56 % 0.00 in /  0 mm
13:33 67.7 °F /  19.8 °C 52.4 °F /  11.3 °C 30.17 in /  1021.6 hPa Calm   1.2 mph /  1.9 km/h 58 % 0.00 in /  0 mm
13:38 67.6 °F /  19.8 °C 52.8 °F /  11.6 °C 30.17 in /  1021.6 hPa Calm   1.0 mph /  1.6 km/h 59 % 0.00 in /  0 mm
13:43 67.7 °F /  19.8 °C 52.9 °F /  11.6 °C 30.17 in /  1021.6 hPa NE 0.1 mph /  0.2 km/h 1.2 mph /  1.9 km/h 59 % 0.00 in /  0 mm
13:48 67.7 °F /  19.8 °C 51.4 °F /  10.8 °C 30.17 in /  1021.6 hPa ENE 0.4 mph /  0.6 km/h 1.2 mph /  1.9 km/h 56 % 0.00 in /  0 mm
13:53 67.7 °F /  19.8 °C 50.9 °F /  10.5 °C 30.17 in /  1021.6 hPa ENE 0.5 mph /  0.8 km/h 2.3 mph /  3.7 km/h 55 % 0.00 in /  0 mm
13:58 67.7 °F /  19.8 °C 51.4 °F /  10.8 °C 30.17 in /  1021.6 hPa Calm   1.2 mph /  1.9 km/h 56 % 0.00 in /  0 mm
14:08 67.7 °F /  19.8 °C 51.4 °F /  10.8 °C 30.16 in /  1021.2 hPa Calm     56 % 0.00 in /  0 mm
14:13 67.7 °F /  19.8 °C 51.9 °F /  11.1 °C 30.17 in /  1021.6 hPa ESE 0.9 mph /  1.4 km/h 2.0 mph /  3.2 km/h 57 % 0.00 in /  0 mm
14:18 67.6 °F /  19.8 °C 50.9 °F /  10.5 °C 30.17 in /  1021.6 hPa SE 0.8 mph /  1.3 km/h 3.5 mph /  5.6 km/h 55 % 0.00 in /  0 mm
14:23 67.6 °F /  19.8 °C 52.8 °F /  11.6 °C 30.17 in /  1021.6 hPa Calm   1.0 mph /  1.6 km/h 59 % 0.00 in /  0 mm
14:28 67.6 °F /  19.8 °C 52.8 °F /  11.6 °C 30.16 in /  1021.2 hPa SE 0.1 mph /  0.2 km/h 1.2 mph /  1.9 km/h 59 % 0.00 in /  0 mm
14:33 67.5 °F /  19.7 °C 51.2 °F /  10.7 °C 30.16 in /  1021.2 hPa SE 1.9 mph /  3.1 km/h 2.3 mph /  3.7 km/h 56 % 0.00 in /  0 mm
14:38 67.4 °F /  19.7 °C 52.6 °F /  11.4 °C 30.16 in /  1021.2 hPa SSE 0.1 mph /  0.2 km/h 5.8 mph /  9.3 km/h 59 % 0.00 in /  0 mm
14:43 67.4 °F /  19.7 °C 52.6 °F /  11.4 °C 30.16 in /  1021.2 hPa Calm     59 % 0.00 in /  0 mm
14:48 67.4 °F /  19.7 °C 52.1 °F /  11.2 °C 30.16 in /  1021.2 hPa Calm   1.2 mph /  1.9 km/h 58 % 0.00 in /  0 mm
14:53 67.4 °F /  19.7 °C 52.6 °F /  11.4 °C 30.16 in /  1021.2 hPa Calm     59 % 0.00 in /  0 mm
14:58 67.3 °F /  19.6 °C 52.9 °F /  11.6 °C 30.16 in /  1021.2 hPa Calm   2.3 mph /  3.7 km/h 60 % 0.00 in /  0 mm
15:03 67.3 °F /  19.6 °C 51.5 °F /  10.8 °C 30.15 in /  1020.9 hPa SE 0.2 mph /  0.3 km/h 3.5 mph /  5.6 km/h 57 % 0.00 in /  0 mm
15:09 67.2 °F /  19.6 °C 52.8 °F /  11.6 °C 30.16 in /  1021.2 hPa SE 0.7 mph /  1.1 km/h 1.2 mph /  1.9 km/h 60 % 0.00 in /  0 mm
15:14 67.1 °F /  19.5 °C 52.7 °F /  11.5 °C 30.15 in /  1020.9 hPa Calm   1.2 mph /  1.9 km/h 60 % 0.00 in /  0 mm
15:19 67.0 °F /  19.4 °C 52.7 °F /  11.5 °C 30.15 in /  1020.9 hPa SE 0.4 mph /  0.6 km/h 3.5 mph /  5.6 km/h 60 % 0.00 in /  0 mm
15:24 66.8 °F /  19.3 °C 52.0 °F /  11.1 °C 30.15 in /  1020.9 hPa Calm     59 % 0.00 in /  0 mm
15:29 66.7 °F /  19.3 °C 51.0 °F /  10.6 °C 30.14 in /  1020.5 hPa SE 0.4 mph /  0.6 km/h 1.2 mph /  1.9 km/h 57 % 0.00 in /  0 mm
15:34 66.7 °F /  19.3 °C 50.5 °F /  10.3 °C 30.14 in /  1020.5 hPa Calm   1.2 mph /  1.9 km/h 56 % 0.00 in /  0 mm
15:39 66.5 °F /  19.2 °C 51.3 °F /  10.7 °C 30.14 in /  1020.5 hPa Calm     58 % 0.00 in /  0 mm
15:44 66.4 °F /  19.1 °C 50.2 °F /  10.1 °C 30.14 in /  1020.5 hPa Calm     56 % 0.00 in /  0 mm
15:49 66.4 °F /  19.1 °C 51.6 °F /  10.9 °C 30.14 in /  1020.5 hPa Calm     59 % 0.00 in /  0 mm
15:54 66.4 °F /  19.1 °C 51.6 °F /  10.9 °C 30.14 in /  1020.5 hPa Calm     59 % 0.00 in /  0 mm
15:59 66.4 °F /  19.1 °C 52.1 °F /  11.2 °C 30.13 in /  1020.2 hPa Calm     60 % 0.00 in /  0 mm
16:04 66.4 °F /  19.1 °C 50.7 °F /  10.4 °C 30.13 in /  1020.2 hPa Calm     57 % 0.00 in /  0 mm
16:09 66.3 °F /  19.1 °C 51.5 °F /  10.8 °C 30.13 in /  1020.2 hPa Calm     59 % 0.00 in /  0 mm
16:14 66.4 °F /  19.1 °C 53.0 °F /  11.7 °C 30.13 in /  1020.2 hPa Calm     62 % 0.00 in /  0 mm
16:19 66.4 °F /  19.1 °C 52.1 °F /  11.2 °C 30.13 in /  1020.2 hPa Calm   1.2 mph /  1.9 km/h 60 % 0.00 in /  0 mm
16:24 66.3 °F /  19.1 °C 52.0 °F /  11.1 °C 30.13 in /  1020.2 hPa Calm   1.2 mph /  1.9 km/h 60 % 0.00 in /  0 mm
16:29 66.3 °F /  19.1 °C 51.1 °F /  10.6 °C 30.13 in /  1020.2 hPa Calm     58 % 0.00 in /  0 mm
16:34 66.2 °F /  19 °C 51.9 °F /  11.1 °C 30.13 in /  1020.2 hPa Calm   1.0 mph /  1.6 km/h 60 % 0.00 in /  0 mm
16:39 66.2 °F /  19 °C 52.3 °F /  11.3 °C 30.13 in /  1020.2 hPa Calm     61 % 0.00 in /  0 mm
16:44 66.1 °F /  18.9 °C 51.8 °F /  11 °C 30.13 in /  1020.2 hPa Calm     60 % 0.00 in /  0 mm
16:49 66.1 °F /  18.9 °C 52.3 °F /  11.3 °C 30.13 in /  1020.2 hPa Calm   1.2 mph /  1.9 km/h 61 % 0.00 in /  0 mm
16:54 65.9 °F /  18.8 °C 52.1 °F /  11.2 °C 30.13 in /  1020.2 hPa Calm     61 % 0.00 in /  0 mm
17:00 65.9 °F /  18.8 °C 52.5 °F /  11.4 °C 30.13 in /  1020.2 hPa Calm     62 % 0.00 in /  0 mm
17:05 65.8 °F /  18.8 °C 52.9 °F /  11.6 °C 30.13 in /  1020.2 hPa Calm     63 % 0.00 in /  0 mm
17:10 65.7 °F /  18.7 °C 52.3 °F /  11.3 °C 30.13 in /  1020.2 hPa SW 1.0 mph /  1.6 km/h 2.3 mph /  3.7 km/h 62 % 0.00 in /  0 mm
17:15 65.6 °F /  18.7 °C 52.2 °F /  11.2 °C 30.13 in /  1020.2 hPa SW 0.6 mph /  1 km/h 3.0 mph /  4.8 km/h 62 % 0.00 in /  0 mm
17:20 65.5 °F /  18.6 °C 52.1 °F /  11.2 °C 30.13 in /  1020.2 hPa SW 0.1 mph /  0.2 km/h 1.2 mph /  1.9 km/h 62 % 0.00 in /  0 mm
17:25 65.4 °F /  18.6 °C 52.0 °F /  11.1 °C 30.13 in /  1020.2 hPa Calm   1.2 mph /  1.9 km/h 62 % 0.00 in /  0 mm
17:30 65.2 °F /  18.4 °C 52.3 °F /  11.3 °C 30.13 in /  1020.2 hPa SW 0.3 mph /  0.5 km/h 3.5 mph /  5.6 km/h 63 % 0.00 in /  0 mm
17:35 64.9 °F /  18.3 °C 52.8 °F /  11.6 °C 30.13 in /  1020.2 hPa Calm     65 % 0.00 in /  0 mm
17:40 64.7 °F /  18.2 °C 53.5 °F /  11.9 °C 30.13 in /  1020.2 hPa Calm     67 % 0.00 in /  0 mm
17:45 64.5 °F /  18.1 °C 53.3 °F /  11.8 °C 30.13 in /  1020.2 hPa Calm     67 % 0.00 in /  0 mm
17:50 64.3 °F /  17.9 °C 53.1 °F /  11.7 °C 30.12 in /  1019.9 hPa Calm     67 % 0.00 in /  0 mm
17:55 64.1 °F /  17.8 °C 53.3 °F /  11.8 °C 30.12 in /  1019.9 hPa Calm     68 % 0.00 in /  0 mm
18:00 64.0 °F /  17.8 °C 53.2 °F /  11.8 °C 30.12 in /  1019.9 hPa Calm     68 % 0.00 in /  0 mm
18:05 63.9 °F /  17.7 °C 53.5 °F /  11.9 °C 30.12 in /  1019.9 hPa Calm   1.2 mph /  1.9 km/h 69 % 0.00 in /  0 mm
18:10 63.8 °F /  17.7 °C 53.4 °F /  11.9 °C 30.12 in /  1019.9 hPa Calm     69 % 0.00 in /  0 mm
18:15 63.6 °F /  17.6 °C 53.2 °F /  11.8 °C 30.11 in /  1019.5 hPa Calm     69 % 0.00 in /  0 mm
18:20 63.4 °F /  17.4 °C 53.4 °F /  11.9 °C 30.11 in /  1019.5 hPa Calm     70 % 0.00 in /  0 mm
18:25 63.3 °F /  17.4 °C 53.7 °F /  12.1 °C 30.11 in /  1019.5 hPa Calm   1.0 mph /  1.6 km/h 71 % 0.00 in /  0 mm
18:30 63.2 °F /  17.3 °C 53.6 °F /  12 °C 30.11 in /  1019.5 hPa SW 0.9 mph /  1.4 km/h 2.3 mph /  3.7 km/h 71 % 0.00 in /  0 mm
18:35 63.1 °F /  17.3 °C 53.5 °F /  11.9 °C 30.11 in /  1019.5 hPa Calm     71 % 0.00 in /  0 mm
18:40 63.0 °F /  17.2 °C 53.4 °F /  11.9 °C 30.11 in /  1019.5 hPa SW 0.1 mph /  0.2 km/h 1.2 mph /  1.9 km/h 71 % 0.00 in /  0 mm
18:45 62.9 °F /  17.2 °C 53.7 °F /  12.1 °C 30.11 in /  1019.5 hPa SW 0.7 mph /  1.1 km/h 3.5 mph /  5.6 km/h 72 % 0.00 in /  0 mm
18:50 62.8 °F /  17.1 °C 53.3 °F /  11.8 °C 30.12 in /  1019.9 hPa Calm     71 % 0.00 in /  0 mm
18:55 62.8 °F /  17.1 °C 53.3 °F /  11.8 °C 30.12 in /  1019.9 hPa SW 0.5 mph /  0.8 km/h 2.3 mph /  3.7 km/h 71 % 0.00 in /  0 mm
19:01 62.7 °F /  17.1 °C 53.2 °F /  11.8 °C 30.12 in /  1019.9 hPa Calm   2.3 mph /  3.7 km/h 71 % 0.00 in /  0 mm
19:06 62.6 °F /  17 °C 53.4 °F /  11.9 °C 30.12 in /  1019.9 hPa Calm   4.0 mph /  6.4 km/h 72 % 0.00 in /  0 mm
19:11 62.5 °F /  16.9 °C 53.3 °F /  11.8 °C 30.12 in /  1019.9 hPa Calm   1.0 mph /  1.6 km/h 72 % 0.00 in /  0 mm
19:16 62.5 °F /  16.9 °C 53.3 °F /  11.8 °C 30.11 in /  1019.5 hPa Calm     72 % 0.00 in /  0 mm
19:21 62.4 °F /  16.9 °C 53.3 °F /  11.8 °C 30.11 in /  1019.5 hPa SSW 0.1 mph /  0.2 km/h 1.2 mph /  1.9 km/h 72 % 0.00 in /  0 mm
19:26 62.3 °F /  16.8 °C 53.2 °F /  11.8 °C 30.11 in /  1019.5 hPa SSW 0.1 mph /  0.2 km/h 1.0 mph /  1.6 km/h 72 % 0.00 in /  0 mm
19:31 62.3 °F /  16.8 °C 53.2 °F /  11.8 °C 30.11 in /  1019.5 hPa SSW 1.0 mph /  1.6 km/h 3.0 mph /  4.8 km/h 72 % 0.00 in /  0 mm
19:36 62.3 °F /  16.8 °C 53.2 °F /  11.8 °C 30.12 in /  1019.9 hPa Calm   3.0 mph /  4.8 km/h 72 % 0.00 in /  0 mm
19:41 62.3 °F /  16.8 °C 53.1 °F /  11.7 °C 30.12 in /  1019.9 hPa Calm   2.0 mph /  3.2 km/h 72 % 0.00 in /  0 mm
19:46 62.2 °F /  16.8 °C 53.4 °F /  11.9 °C 30.12 in /  1019.9 hPa Calm   3.5 mph /  5.6 km/h 73 % 0.00 in /  0 mm
19:51 62.2 °F /  16.8 °C 53.4 °F /  11.9 °C 30.13 in /  1020.2 hPa Calm   2.0 mph /  3.2 km/h 73 % 0.00 in /  0 mm
19:56 62.2 °F /  16.8 °C 53.8 °F /  12.1 °C 30.12 in /  1019.9 hPa Calm   2.0 mph /  3.2 km/h 74 % 0.00 in /  0 mm
20:01 62.1 °F /  16.7 °C 54.1 °F /  12.3 °C 30.13 in /  1020.2 hPa SE 0.3 mph /  0.5 km/h 1.2 mph /  1.9 km/h 75 % 0.00 in /  0 mm
20:06 62.0 °F /  16.7 °C 54.3 °F /  12.4 °C 30.12 in /  1019.9 hPa Calm   2.3 mph /  3.7 km/h 76 % 0.00 in /  0 mm
20:11 61.9 °F /  16.6 °C 54.2 °F /  12.3 °C 30.13 in /  1020.2 hPa SE 1.4 mph /  2.3 km/h 3.5 mph /  5.6 km/h 76 % 0.00 in /  0 mm
20:16 61.8 °F /  16.6 °C 54.5 °F /  12.5 °C 30.13 in /  1020.2 hPa Calm   1.2 mph /  1.9 km/h 77 % 0.00 in /  0 mm
20:21 61.7 °F /  16.5 °C 54.4 °F /  12.4 °C 30.12 in /  1019.9 hPa SE 1.1 mph /  1.8 km/h 3.5 mph /  5.6 km/h 77 % 0.00 in /  0 mm
20:26 61.6 °F /  16.4 °C 54.7 °F /  12.6 °C 30.12 in /  1019.9 hPa Calm   3.5 mph /  5.6 km/h 78 % 0.00 in /  0 mm
20:31 61.4 °F /  16.3 °C 54.5 °F /  12.5 °C 30.12 in /  1019.9 hPa SE 0.7 mph /  1.1 km/h 2.3 mph /  3.7 km/h 78 % 0.00 in /  0 mm
20:36 61.3 °F /  16.3 °C 54.7 °F /  12.6 °C 30.12 in /  1019.9 hPa SE 0.4 mph /  0.6 km/h 1.2 mph /  1.9 km/h 79 % 0.00 in /  0 mm
20:41 61.2 °F /  16.2 °C 55.0 °F /  12.8 °C 30.12 in /  1019.9 hPa SE 0.9 mph /  1.4 km/h 3.5 mph /  5.6 km/h 80 % 0.00 in /  0 mm
20:46 61.0 °F /  16.1 °C 55.1 °F /  12.8 °C 30.12 in /  1019.9 hPa ESE 0.8 mph /  1.3 km/h 2.3 mph /  3.7 km/h 81 % 0.00 in /  0 mm
20:51 60.7 °F /  15.9 °C 55.2 °F /  12.9 °C 30.12 in /  1019.9 hPa SE 1.0 mph /  1.6 km/h 2.3 mph /  3.7 km/h 82 % 0.01 in /  0.25 mm
20:56 60.5 °F /  15.8 °C 55.6 °F /  13.1 °C 30.12 in /  1019.9 hPa SE 0.4 mph /  0.6 km/h 1.2 mph /  1.9 km/h 84 % 0.01 in /  0.25 mm
21:01 60.2 °F /  15.7 °C 55.3 °F /  12.9 °C 30.12 in /  1019.9 hPa SE 0.9 mph /  1.4 km/h 4.0 mph /  6.4 km/h 84 % 0.01 in /  0.25 mm
21:06 60.0 °F /  15.6 °C 55.5 °F /  13.1 °C 30.11 in /  1019.5 hPa SE 0.6 mph /  1 km/h 2.3 mph /  3.7 km/h 85 % 0.02 in /  0.51 mm
21:11 59.8 °F /  15.4 °C 55.6 °F /  13.1 °C 30.11 in /  1019.5 hPa SE 0.1 mph /  0.2 km/h 1.2 mph /  1.9 km/h 86 % 0.02 in /  0.51 mm
21:16 59.6 °F /  15.3 °C 55.4 °F /  13 °C 30.11 in /  1019.5 hPa SE 0.2 mph /  0.3 km/h 1.2 mph /  1.9 km/h 86 % 0.02 in /  0.51 mm
21:26 59.3 °F /  15.2 °C 55.7 °F /  13.2 °C 30.11 in /  1019.5 hPa ESE 0.3 mph /  0.5 km/h 2.3 mph /  3.7 km/h 88 % 0.02 in /  0.51 mm
21:31 59.3 °F /  15.2 °C 55.7 °F /  13.2 °C 30.10 in /  1019.2 hPa ESE 0.5 mph /  0.8 km/h 1.2 mph /  1.9 km/h 88 % 0.02 in /  0.51 mm
21:36 59.2 °F /  15.1 °C 55.6 °F /  13.1 °C 30.11 in /  1019.5 hPa Calm   1.2 mph /  1.9 km/h 88 % 0.02 in /  0.51 mm
21:41 59.2 °F /  15.1 °C 56.0 °F /  13.3 °C 30.11 in /  1019.5 hPa ESE 0.5 mph /  0.8 km/h 2.3 mph /  3.7 km/h 89 % 0.03 in /  0.76 mm
21:46 59.1 °F /  15.1 °C 55.9 °F /  13.3 °C 30.11 in /  1019.5 hPa ESE 0.1 mph /  0.2 km/h 3.5 mph /  5.6 km/h 89 % 0.03 in /  0.76 mm
21:48 59.1 °F /  15.1 °C 55.9 °F /  13.3 °C 30.11 in /  1019.5 hPa ESE 0.2 mph /  0.3 km/h 1.2 mph /  1.9 km/h 89 % 0.03 in /  0.76 mm
21:53 59.0 °F /  15 °C 55.8 °F /  13.2 °C 30.11 in /  1019.5 hPa Calm   1.2 mph /  1.9 km/h 89 % 0.02 in /  0.51 mm
21:58 59.0 °F /  15 °C 56.1 °F /  13.4 °C 30.11 in /  1019.5 hPa ESE 0.2 mph /  0.3 km/h 1.2 mph /  1.9 km/h 90 % 0.02 in /  0.51 mm
22:03 59.0 °F /  15 °C 56.1 °F /  13.4 °C 30.12 in /  1019.9 hPa ESE 0.2 mph /  0.3 km/h 1.2 mph /  1.9 km/h 90 % 0.02 in /  0.51 mm
22:08 59.0 °F /  15 °C 56.1 °F /  13.4 °C 30.11 in /  1019.5 hPa Calm     90 % 0.02 in /  0.51 mm
22:13 59.0 °F /  15 °C 56.1 °F /  13.4 °C 30.11 in /  1019.5 hPa ESE 0.1 mph /  0.2 km/h 1.2 mph /  1.9 km/h 90 % 0.02 in /  0.51 mm
22:18 59.0 °F /  15 °C 56.4 °F /  13.6 °C 30.11 in /  1019.5 hPa ESE 0.1 mph /  0.2 km/h 1.2 mph /  1.9 km/h 91 % 0.02 in /  0.51 mm
22:23 58.9 °F /  14.9 °C 56.3 °F /  13.5 °C 30.11 in /  1019.5 hPa ESE 0.2 mph /  0.3 km/h 1.2 mph /  1.9 km/h 91 % 0.02 in /  0.51 mm
22:28 58.9 °F /  14.9 °C 56.3 °F /  13.5 °C 30.11 in /  1019.5 hPa ESE 0.4 mph /  0.6 km/h 2.3 mph /  3.7 km/h 91 % 0.03 in /  0.76 mm
22:33 59.0 °F /  15 °C 56.7 °F /  13.7 °C 30.10 in /  1019.2 hPa ESE 0.4 mph /  0.6 km/h 1.2 mph /  1.9 km/h 92 % 0.03 in /  0.76 mm
22:38 59.0 °F /  15 °C 56.7 °F /  13.7 °C 30.10 in /  1019.2 hPa ESE 0.9 mph /  1.4 km/h 3.5 mph /  5.6 km/h 92 % 0.04 in /  1.02 mm
22:44 59.0 °F /  15 °C 56.7 °F /  13.7 °C 30.10 in /  1019.2 hPa ESE 0.8 mph /  1.3 km/h 2.3 mph /  3.7 km/h 92 % 0.03 in /  0.76 mm
22:49 58.9 °F /  14.9 °C 56.6 °F /  13.7 °C 30.10 in /  1019.2 hPa ESE 1.1 mph /  1.8 km/h 3.5 mph /  5.6 km/h 92 % 0.03 in /  0.76 mm
22:54 58.8 °F /  14.9 °C 56.5 °F /  13.6 °C 30.09 in /  1018.8 hPa ESE 0.3 mph /  0.5 km/h 2.3 mph /  3.7 km/h 92 % 0.04 in /  1.02 mm
22:59 58.8 °F /  14.9 °C 56.5 °F /  13.6 °C 30.09 in /  1018.8 hPa ESE 0.7 mph /  1.1 km/h 2.3 mph /  3.7 km/h 92 % 0.04 in /  1.02 mm
23:04 58.8 °F /  14.9 °C 56.5 °F /  13.6 °C 30.09 in /  1018.8 hPa ESE 0.2 mph /  0.3 km/h 1.2 mph /  1.9 km/h 92 % 0.04 in /  1.02 mm
23:09 58.8 °F /  14.9 °C 56.5 °F /  13.6 °C 30.09 in /  1018.8 hPa ESE 1.4 mph /  2.3 km/h 3.5 mph /  5.6 km/h 92 % 0.04 in /  1.02 mm
23:15 58.6 °F /  14.8 °C 56.3 °F /  13.5 °C 30.08 in /  1018.5 hPa ESE 0.2 mph /  0.3 km/h 2.3 mph /  3.7 km/h 92 % 0.05 in /  1.27 mm
23:20 58.5 °F /  14.7 °C 56.2 °F /  13.4 °C 30.08 in /  1018.5 hPa ESE 0.6 mph /  1 km/h 2.3 mph /  3.7 km/h 92 % 0.06 in /  1.52 mm
23:21 58.5 °F /  14.7 °C 56.2 °F /  13.4 °C 30.08 in /  1018.5 hPa ESE 0.7 mph /  1.1 km/h 2.3 mph /  3.7 km/h 92 % 0.06 in /  1.52 mm
23:22 58.4 °F /  14.7 °C 56.1 °F /  13.4 °C 30.08 in /  1018.5 hPa ESE 0.5 mph /  0.8 km/h 1.2 mph /  1.9 km/h 92 % 0.06 in /  1.52 mm
23:25 58.4 °F /  14.7 °C 56.1 °F /  13.4 °C 30.08 in /  1018.5 hPa ESE 1.2 mph /  1.9 km/h 3.5 mph /  5.6 km/h 92 % 0.05 in /  1.27 mm
23:30 58.2 °F /  14.6 °C 55.9 °F /  13.3 °C 30.08 in /  1018.5 hPa ESE 0.3 mph /  0.5 km/h 1.2 mph /  1.9 km/h 92 % 0.06 in /  1.52 mm
23:32 58.2 °F /  14.6 °C 55.9 °F /  13.3 °C 30.08 in /  1018.5 hPa ESE 0.7 mph /  1.1 km/h 2.3 mph /  3.7 km/h 92 % 0.06 in /  1.52 mm
23:37 58.1 °F /  14.5 °C 55.8 °F /  13.2 °C 30.08 in /  1018.5 hPa ESE 0.1 mph /  0.2 km/h 1.2 mph /  1.9 km/h 92 % 0.06 in /  1.52 mm
23:42 58.0 °F /  14.4 °C 55.7 °F /  13.2 °C 30.08 in /  1018.5 hPa SE 1.6 mph /  2.6 km/h 3.5 mph /  5.6 km/h 92 % 0.07 in /  1.78 mm
23:47 57.9 °F /  14.4 °C 55.6 °F /  13.1 °C 30.08 in /  1018.5 hPa ESE 0.2 mph /  0.3 km/h 1.2 mph /  1.9 km/h 92 % 0.09 in /  2.29 mm
23:52 57.9 °F /  14.4 °C 55.9 °F /  13.3 °C 30.08 in /  1018.5 hPa ESE 0.1 mph /  0.2 km/h 1.2 mph /  1.9 km/h 93 % 0.10 in /  2.54 mm
Crab Meadow Weather
Compliments of Weather Underground - 3 mb

Script developed by  Jim McMurry - jmcmurry@mwt.net Adapted for the template by  Wim van der Kuil - Leuven-Template.eu

Weather Terms: Lake Effect Snow Warning - Lake effect snowfall of 6 inches or more in 12 hours or less, or 8 inches or more in 24 hours or less.